Aviation Digital Data Service (ADDS)

Output produced by METARs form (0300 UTC 18 August 2017)
found at http://www.aviationweather.gov/adds/metars/
 
LBBG 180230Z 35012KT CAVOK 24/11 Q1013 NOSIG
TAF LBBG 172300Z 1800/1824 01010KT CAVOK 
     BECMG 1809/1811 08016KT 
     BECMG 1819/1821 02008KT
       
LBGO 180230Z AUTO 09003KT 9999 R09///// NCD 14/14 Q1017
TAF LBGO 172300Z 1800/1824 30008KT CAVOK 
     BECMG 1807/1809 36010KT 
     BECMG 1816/1818 06008KT
       
LBPD 180230Z AUTO 18004KT 160V280 9999 NCD 19/11 Q1016
TAF LBPD 172300Z 1800/1824 VRB04KT 9999 SCT060 
     BECMG 1805/1807 29010KT 
     BECMG 1809/1811 02010KT 
     BECMG 1818/1820 VRB04KT
       
LBSF 180230Z VRB01KT CAVOK 16/14 Q1019 NOSIG
TAF LBSF 172300Z 1800/1824 VRB04KT CAVOK 
     BECMG 1808/1810 05012KT SCT050 
     BECMG 1818/1820 VRB04KT
       
LBWN 180230Z 36015KT CAVOK 22/12 Q1013 NOSIG
TAF LBWN 172300Z 1800/1824 01012KT CAVOK 
     BECMG 1810/1812 08014KT 
     BECMG 1818/1820 36008KT
       
LBBG 180230Z 35012KT CAVOK 24/11 Q1013 NOSIG
TAF LBBG 172300Z 1800/1824 01010KT CAVOK 
     BECMG 1809/1811 08016KT 
     BECMG 1819/1821 02008KT
       
LBGO 180230Z AUTO 09003KT 9999 R09///// NCD 14/14 Q1017
TAF LBGO 172300Z 1800/1824 30008KT CAVOK 
     BECMG 1807/1809 36010KT 
     BECMG 1816/1818 06008KT
       
LBPD 180230Z AUTO 18004KT 160V280 9999 NCD 19/11 Q1016
TAF LBPD 172300Z 1800/1824 VRB04KT 9999 SCT060 
     BECMG 1805/1807 29010KT 
     BECMG 1809/1811 02010KT 
     BECMG 1818/1820 VRB04KT
       
LBSF 180230Z VRB01KT CAVOK 16/14 Q1019 NOSIG
TAF LBSF 172300Z 1800/1824 VRB04KT CAVOK 
     BECMG 1808/1810 05012KT SCT050 
     BECMG 1818/1820 VRB04KT
       
LBWN 180230Z 36015KT CAVOK 22/12 Q1013 NOSIG
TAF LBWN 172300Z 1800/1824 01012KT CAVOK 
     BECMG 1810/1812 08014KT 
     BECMG 1818/1820 36008KT